sensor_id;sensor_type;location;lat;lon;timestamp;P1;durP1;ratioP1;P2;durP2;ratioP2
74080;SDS011;62438;52.228;6.864;2022-12-29T00:00:28;6.63;;;1.83;;
74080;SDS011;62438;52.228;6.864;2022-12-29T00:02:28;5.18;;;1.60;;
74080;SDS011;62438;52.228;6.864;2022-12-29T00:04:29;5.45;;;1.48;;
74080;SDS011;62438;52.228;6.864;2022-12-29T00:06:30;5.55;;;1.77;;
74080;SDS011;62438;52.228;6.864;2022-12-29T00:08:30;5.05;;;1.77;;
74080;SDS011;62438;52.228;6.864;2022-12-29T00:10:49;4.85;;;1.88;;
74080;SDS011;62438;52.228;6.864;2022-12-29T00:12:49;4.22;;;1.40;;
74080;SDS011;62438;52.228;6.864;2022-12-29T00:15:08;4.20;;;1.38;;
74080;SDS011;62438;52.228;6.864;2022-12-29T00:17:27;5.45;;;1.90;;
74080;SDS011;62438;52.228;6.864;2022-12-29T00:19:27;5.35;;;1.90;;
74080;SDS011;62438;52.228;6.864;2022-12-29T00:21:47;4.35;;;1.48;;
74080;SDS011;62438;52.228;6.864;2022-12-29T00:24:06;3.83;;;1.10;;
74080;SDS011;62438;52.228;6.864;2022-12-29T00:26:31;5.57;;;1.70;;
74080;SDS011;62438;52.228;6.864;2022-12-29T00:28:50;5.60;;;1.83;;
74080;SDS011;62438;52.228;6.864;2022-12-29T00:31:11;4.47;;;1.35;;
74080;SDS011;62438;52.228;6.864;2022-12-29T00:33:31;6.10;;;1.48;;
74080;SDS011;62438;52.228;6.864;2022-12-29T00:35:52;4.57;;;1.60;;
74080;SDS011;62438;52.228;6.864;2022-12-29T00:38:15;4.75;;;1.58;;
74080;SDS011;62438;52.228;6.864;2022-12-29T00:40:34;5.47;;;1.90;;
74080;SDS011;62438;52.228;6.864;2022-12-29T00:42:53;5.22;;;1.17;;
74080;SDS011;62438;52.228;6.864;2022-12-29T00:45:12;4.05;;;1.42;;
74080;SDS011;62438;52.228;6.864;2022-12-29T00:47:12;5.45;;;1.35;;
74080;SDS011;62438;52.228;6.864;2022-12-29T00:49:13;4.65;;;1.50;;
74080;SDS011;62438;52.228;6.864;2022-12-29T00:51:32;5.63;;;1.63;;
74080;SDS011;62438;52.228;6.864;2022-12-29T00:53:32;4.20;;;1.40;;
74080;SDS011;62438;52.228;6.864;2022-12-29T00:55:36;3.95;;;1.33;;
74080;SDS011;62438;52.228;6.864;2022-12-29T00:57:38;3.47;;;1.23;;
74080;SDS011;62438;52.228;6.864;2022-12-29T00:59:38;4.55;;;1.30;;
74080;SDS011;62438;52.228;6.864;2022-12-29T01:01:40;4.22;;;1.30;;
74080;SDS011;62438;52.228;6.864;2022-12-29T01:03:40;4.20;;;1.30;;
74080;SDS011;62438;52.228;6.864;2022-12-29T01:05:41;4.32;;;1.40;;
74080;SDS011;62438;52.228;6.864;2022-12-29T01:07:41;5.20;;;1.80;;
74080;SDS011;62438;52.228;6.864;2022-12-29T01:09:41;7.65;;;1.40;;
74080;SDS011;62438;52.228;6.864;2022-12-29T01:12:01;4.78;;;1.30;;
74080;SDS011;62438;52.228;6.864;2022-12-29T01:14:01;4.07;;;1.42;;
74080;SDS011;62438;52.228;6.864;2022-12-29T01:16:02;3.55;;;1.10;;
74080;SDS011;62438;52.228;6.864;2022-12-29T01:18:03;4.35;;;1.40;;
74080;SDS011;62438;52.228;6.864;2022-12-29T01:20:03;3.30;;;1.15;;
74080;SDS011;62438;52.228;6.864;2022-12-29T01:22:04;3.63;;;1.30;;
74080;SDS011;62438;52.228;6.864;2022-12-29T01:24:05;3.25;;;1.00;;
74080;SDS011;62438;52.228;6.864;2022-12-29T01:26:09;4.00;;;1.10;;
74080;SDS011;62438;52.228;6.864;2022-12-29T01:28:13;3.33;;;0.95;;
74080;SDS011;62438;52.228;6.864;2022-12-29T01:30:14;2.70;;;0.80;;
74080;SDS011;62438;52.228;6.864;2022-12-29T01:32:14;2.47;;;0.90;;
74080;SDS011;62438;52.228;6.864;2022-12-29T01:34:15;3.03;;;1.00;;
74080;SDS011;62438;52.228;6.864;2022-12-29T01:36:16;3.08;;;0.80;;
74080;SDS011;62438;52.228;6.864;2022-12-29T01:38:17;2.58;;;0.80;;
74080;SDS011;62438;52.228;6.864;2022-12-29T01:40:18;2.55;;;0.77;;
74080;SDS011;62438;52.228;6.864;2022-12-29T01:42:19;2.53;;;0.68;;
74080;SDS011;62438;52.228;6.864;2022-12-29T01:47:03;1.98;;;0.57;;
74080;SDS011;62438;52.228;6.864;2022-12-29T01:49:13;0.93;;;0.40;;
74080;SDS011;62438;52.228;6.864;2022-12-29T01:51:19;2.30;;;0.50;;
74080;SDS011;62438;52.228;6.864;2022-12-29T01:53:25;2.15;;;0.60;;
74080;SDS011;62438;52.228;6.864;2022-12-29T01:55:29;2.80;;;0.93;;
74080;SDS011;62438;52.228;6.864;2022-12-29T01:57:34;2.45;;;0.60;;
74080;SDS011;62438;52.228;6.864;2022-12-29T01:59:40;1.83;;;0.60;;
74080;SDS011;62438;52.228;6.864;2022-12-29T02:01:45;1.83;;;0.70;;
74080;SDS011;62438;52.228;6.864;2022-12-29T02:03:46;1.77;;;0.68;;
74080;SDS011;62438;52.228;6.864;2022-12-29T02:08:28;2.80;;;0.90;;
74080;SDS011;62438;52.228;6.864;2022-12-29T02:10:30;2.70;;;0.73;;
74080;SDS011;62438;52.228;6.864;2022-12-29T02:12:33;3.28;;;1.20;;
74080;SDS011;62438;52.228;6.864;2022-12-29T02:14:34;3.58;;;1.20;;
74080;SDS011;62438;52.228;6.864;2022-12-29T02:32:54;5.68;;;1.40;;
74080;SDS011;62438;52.228;6.864;2022-12-29T02:35:08;3.92;;;1.33;;
74080;SDS011;62438;52.228;6.864;2022-12-29T02:37:33;4.63;;;1.50;;
74080;SDS011;62438;52.228;6.864;2022-12-29T02:39:48;4.82;;;1.60;;
74080;SDS011;62438;52.228;6.864;2022-12-29T02:44:09;4.60;;;1.45;;
74080;SDS011;62438;52.228;6.864;2022-12-29T02:46:19;4.35;;;1.33;;
74080;SDS011;62438;52.228;6.864;2022-12-29T02:50:51;3.25;;;1.27;;
74080;SDS011;62438;52.228;6.864;2022-12-29T02:52:58;5.25;;;1.50;;
74080;SDS011;62438;52.228;6.864;2022-12-29T02:55:02;3.80;;;1.13;;
74080;SDS011;62438;52.228;6.864;2022-12-29T02:57:02;3.67;;;0.98;;
74080;SDS011;62438;52.228;6.864;2022-12-29T02:59:05;5.78;;;1.15;;
74080;SDS011;62438;52.228;6.864;2022-12-29T03:01:23;4.47;;;1.00;;
74080;SDS011;62438;52.228;6.864;2022-12-29T03:04:09;4.35;;;1.10;;
74080;SDS011;62438;52.228;6.864;2022-12-29T03:06:22;3.20;;;0.77;;
74080;SDS011;62438;52.228;6.864;2022-12-29T03:13:02;4.10;;;1.15;;
74080;SDS011;62438;52.228;6.864;2022-12-29T03:15:39;2.50;;;0.90;;
74080;SDS011;62438;52.228;6.864;2022-12-29T03:18:04;3.42;;;0.82;;
74080;SDS011;62438;52.228;6.864;2022-12-29T03:20:10;2.78;;;0.85;;
74080;SDS011;62438;52.228;6.864;2022-12-29T03:22:22;2.70;;;0.70;;
74080;SDS011;62438;52.228;6.864;2022-12-29T03:24:29;3.85;;;0.90;;
74080;SDS011;62438;52.228;6.864;2022-12-29T03:26:37;3.17;;;0.80;;
74080;SDS011;62438;52.228;6.864;2022-12-29T03:28:39;4.40;;;1.30;;
74080;SDS011;62438;52.228;6.864;2022-12-29T03:30:46;3.28;;;0.80;;
74080;SDS011;62438;52.228;6.864;2022-12-29T03:32:48;4.13;;;0.63;;
74080;SDS011;62438;52.228;6.864;2022-12-29T03:34:51;3.28;;;0.70;;
74080;SDS011;62438;52.228;6.864;2022-12-29T03:37:00;3.00;;;0.90;;
74080;SDS011;62438;52.228;6.864;2022-12-29T03:39:13;3.88;;;0.80;;
74080;SDS011;62438;52.228;6.864;2022-12-29T03:41:15;3.92;;;0.90;;
74080;SDS011;62438;52.228;6.864;2022-12-29T03:43:20;2.70;;;0.63;;
74080;SDS011;62438;52.228;6.864;2022-12-29T03:45:21;3.38;;;0.80;;
74080;SDS011;62438;52.228;6.864;2022-12-29T03:47:22;2.42;;;0.70;;
74080;SDS011;62438;52.228;6.864;2022-12-29T03:49:23;3.70;;;0.70;;
74080;SDS011;62438;52.228;6.864;2022-12-29T03:51:24;2.88;;;0.80;;
74080;SDS011;62438;52.228;6.864;2022-12-29T03:53:24;4.70;;;0.93;;
74080;SDS011;62438;52.228;6.864;2022-12-29T03:55:24;3.83;;;0.60;;
74080;SDS011;62438;52.228;6.864;2022-12-29T03:57:25;5.53;;;0.95;;
74080;SDS011;62438;52.228;6.864;2022-12-29T03:59:25;4.55;;;0.80;;
74080;SDS011;62438;52.228;6.864;2022-12-29T04:01:26;3.25;;;0.68;;
74080;SDS011;62438;52.228;6.864;2022-12-29T04:03:26;4.10;;;0.70;;
74080;SDS011;62438;52.228;6.864;2022-12-29T04:05:26;4.13;;;0.70;;
74080;SDS011;62438;52.228;6.864;2022-12-29T04:07:27;2.88;;;0.70;;
74080;SDS011;62438;52.228;6.864;2022-12-29T04:09:27;4.28;;;0.80;;
74080;SDS011;62438;52.228;6.864;2022-12-29T04:11:28;2.17;;;0.50;;
74080;SDS011;62438;52.228;6.864;2022-12-29T04:13:29;4.55;;;1.08;;
74080;SDS011;62438;52.228;6.864;2022-12-29T04:15:29;4.93;;;0.70;;
74080;SDS011;62438;52.228;6.864;2022-12-29T04:17:30;1.73;;;0.50;;
74080;SDS011;62438;52.228;6.864;2022-12-29T04:19:30;7.53;;;0.98;;
74080;SDS011;62438;52.228;6.864;2022-12-29T04:21:30;3.63;;;0.70;;
74080;SDS011;62438;52.228;6.864;2022-12-29T04:23:32;4.85;;;0.85;;
74080;SDS011;62438;52.228;6.864;2022-12-29T04:25:35;2.63;;;0.82;;
74080;SDS011;62438;52.228;6.864;2022-12-29T04:27:36;4.13;;;0.80;;
74080;SDS011;62438;52.228;6.864;2022-12-29T04:29:36;4.95;;;0.70;;
74080;SDS011;62438;52.228;6.864;2022-12-29T04:31:36;3.85;;;0.70;;
74080;SDS011;62438;52.228;6.864;2022-12-29T04:33:37;2.70;;;0.63;;
74080;SDS011;62438;52.228;6.864;2022-12-29T04:35:37;3.30;;;0.50;;
74080;SDS011;62438;52.228;6.864;2022-12-29T04:37:38;2.92;;;0.60;;
74080;SDS011;62438;52.228;6.864;2022-12-29T04:39:38;4.32;;;0.80;;
74080;SDS011;62438;52.228;6.864;2022-12-29T04:41:39;2.83;;;0.80;;
74080;SDS011;62438;52.228;6.864;2022-12-29T04:43:39;4.70;;;0.70;;
74080;SDS011;62438;52.228;6.864;2022-12-29T04:45:43;3.10;;;0.70;;
74080;SDS011;62438;52.228;6.864;2022-12-29T04:47:44;4.45;;;0.80;;
74080;SDS011;62438;52.228;6.864;2022-12-29T04:49:45;4.40;;;0.70;;
74080;SDS011;62438;52.228;6.864;2022-12-29T04:51:45;2.80;;;0.73;;
74080;SDS011;62438;52.228;6.864;2022-12-29T04:53:45;3.55;;;0.70;;
74080;SDS011;62438;52.228;6.864;2022-12-29T04:55:50;5.93;;;1.00;;
74080;SDS011;62438;52.228;6.864;2022-12-29T04:57:51;2.33;;;0.70;;
74080;SDS011;62438;52.228;6.864;2022-12-29T04:59:52;2.20;;;0.80;;
74080;SDS011;62438;52.228;6.864;2022-12-29T05:01:52;1.98;;;0.82;;
74080;SDS011;62438;52.228;6.864;2022-12-29T05:03:52;2.72;;;0.65;;
74080;SDS011;62438;52.228;6.864;2022-12-29T05:05:53;4.53;;;0.70;;
74080;SDS011;62438;52.228;6.864;2022-12-29T05:07:55;2.15;;;0.70;;
74080;SDS011;62438;52.228;6.864;2022-12-29T05:09:55;2.72;;;0.60;;
74080;SDS011;62438;52.228;6.864;2022-12-29T05:11:56;2.85;;;0.65;;
74080;SDS011;62438;52.228;6.864;2022-12-29T05:13:56;2.22;;;0.60;;
74080;SDS011;62438;52.228;6.864;2022-12-29T05:15:57;4.13;;;0.85;;
74080;SDS011;62438;52.228;6.864;2022-12-29T05:17:57;3.45;;;0.80;;
74080;SDS011;62438;52.228;6.864;2022-12-29T05:19:58;4.80;;;0.70;;
74080;SDS011;62438;52.228;6.864;2022-12-29T05:21:58;2.92;;;1.10;;
74080;SDS011;62438;52.228;6.864;2022-12-29T05:23:58;3.63;;;0.82;;
74080;SDS011;62438;52.228;6.864;2022-12-29T05:25:59;3.95;;;1.02;;
74080;SDS011;62438;52.228;6.864;2022-12-29T05:27:59;4.60;;;0.82;;
74080;SDS011;62438;52.228;6.864;2022-12-29T05:30:00;4.30;;;0.90;;
74080;SDS011;62438;52.228;6.864;2022-12-29T05:32:01;3.03;;;0.90;;
74080;SDS011;62438;52.228;6.864;2022-12-29T05:34:01;5.88;;;1.13;;
74080;SDS011;62438;52.228;6.864;2022-12-29T05:36:05;4.30;;;1.02;;
74080;SDS011;62438;52.228;6.864;2022-12-29T05:38:07;3.72;;;1.05;;
74080;SDS011;62438;52.228;6.864;2022-12-29T05:40:07;5.95;;;1.05;;
74080;SDS011;62438;52.228;6.864;2022-12-29T05:42:08;7.72;;;1.05;;
74080;SDS011;62438;52.228;6.864;2022-12-29T05:44:09;5.35;;;1.00;;
74080;SDS011;62438;52.228;6.864;2022-12-29T05:46:11;10.43;;;1.20;;
74080;SDS011;62438;52.228;6.864;2022-12-29T05:48:11;4.32;;;0.82;;
74080;SDS011;62438;52.228;6.864;2022-12-29T05:50:11;7.22;;;1.00;;
74080;SDS011;62438;52.228;6.864;2022-12-29T05:52:12;16.60;;;2.17;;
74080;SDS011;62438;52.228;6.864;2022-12-29T05:54:12;7.88;;;1.30;;
74080;SDS011;62438;52.228;6.864;2022-12-29T05:56:13;5.43;;;1.20;;
74080;SDS011;62438;52.228;6.864;2022-12-29T05:58:14;3.42;;;0.80;;
74080;SDS011;62438;52.228;6.864;2022-12-29T06:00:15;2.92;;;0.45;;
74080;SDS011;62438;52.228;6.864;2022-12-29T06:02:16;3.97;;;0.60;;
74080;SDS011;62438;52.228;6.864;2022-12-29T06:04:16;4.38;;;0.50;;
74080;SDS011;62438;52.228;6.864;2022-12-29T06:06:17;8.20;;;0.90;;
74080;SDS011;62438;52.228;6.864;2022-12-29T06:08:17;4.45;;;0.77;;
74080;SDS011;62438;52.228;6.864;2022-12-29T06:10:18;6.90;;;1.10;;
74080;SDS011;62438;52.228;6.864;2022-12-29T06:12:18;4.90;;;1.10;;
74080;SDS011;62438;52.228;6.864;2022-12-29T06:14:19;4.60;;;0.73;;
74080;SDS011;62438;52.228;6.864;2022-12-29T06:16:20;8.95;;;1.55;;
74080;SDS011;62438;52.228;6.864;2022-12-29T06:18:20;5.45;;;1.13;;
74080;SDS011;62438;52.228;6.864;2022-12-29T06:20:21;4.80;;;0.90;;
74080;SDS011;62438;52.228;6.864;2022-12-29T06:22:21;4.25;;;0.82;;
74080;SDS011;62438;52.228;6.864;2022-12-29T06:24:21;3.08;;;1.00;;
74080;SDS011;62438;52.228;6.864;2022-12-29T06:26:22;4.32;;;1.17;;
74080;SDS011;62438;52.228;6.864;2022-12-29T06:28:23;5.05;;;0.90;;
74080;SDS011;62438;52.228;6.864;2022-12-29T06:30:23;6.13;;;1.05;;
74080;SDS011;62438;52.228;6.864;2022-12-29T06:32:24;5.75;;;1.20;;
74080;SDS011;62438;52.228;6.864;2022-12-29T06:34:24;3.55;;;1.05;;
74080;SDS011;62438;52.228;6.864;2022-12-29T06:36:25;4.43;;;1.25;;
74080;SDS011;62438;52.228;6.864;2022-12-29T06:38:25;8.23;;;1.33;;
74080;SDS011;62438;52.228;6.864;2022-12-29T06:40:26;11.68;;;1.25;;
74080;SDS011;62438;52.228;6.864;2022-12-29T06:42:26;8.43;;;1.70;;
74080;SDS011;62438;52.228;6.864;2022-12-29T06:44:26;11.10;;;1.55;;
74080;SDS011;62438;52.228;6.864;2022-12-29T06:46:27;7.50;;;1.30;;
74080;SDS011;62438;52.228;6.864;2022-12-29T06:48:27;5.45;;;1.55;;
74080;SDS011;62438;52.228;6.864;2022-12-29T06:50:28;7.55;;;1.50;;
74080;SDS011;62438;52.228;6.864;2022-12-29T06:52:28;10.15;;;1.48;;
74080;SDS011;62438;52.228;6.864;2022-12-29T06:54:29;6.22;;;1.20;;
74080;SDS011;62438;52.228;6.864;2022-12-29T06:56:30;12.95;;;1.55;;
74080;SDS011;62438;52.228;6.864;2022-12-29T06:58:31;8.85;;;1.10;;
74080;SDS011;62438;52.228;6.864;2022-12-29T07:00:32;4.82;;;1.05;;
74080;SDS011;62438;52.228;6.864;2022-12-29T07:02:32;10.57;;;1.50;;
74080;SDS011;62438;52.228;6.864;2022-12-29T07:04:32;7.47;;;1.08;;
74080;SDS011;62438;52.228;6.864;2022-12-29T07:06:33;5.47;;;1.20;;
74080;SDS011;62438;52.228;6.864;2022-12-29T07:08:34;2.53;;;0.55;;
74080;SDS011;62438;52.228;6.864;2022-12-29T07:10:34;7.68;;;1.50;;
74080;SDS011;62438;52.228;6.864;2022-12-29T07:12:35;10.63;;;1.40;;
74080;SDS011;62438;52.228;6.864;2022-12-29T07:14:35;11.18;;;1.42;;
74080;SDS011;62438;52.228;6.864;2022-12-29T07:16:36;7.18;;;0.90;;
74080;SDS011;62438;52.228;6.864;2022-12-29T07:18:37;9.65;;;1.13;;
74080;SDS011;62438;52.228;6.864;2022-12-29T07:20:37;7.47;;;0.90;;
74080;SDS011;62438;52.228;6.864;2022-12-29T07:22:38;6.05;;;0.80;;
74080;SDS011;62438;52.228;6.864;2022-12-29T07:24:39;3.97;;;0.85;;
74080;SDS011;62438;52.228;6.864;2022-12-29T07:26:40;5.25;;;0.75;;
74080;SDS011;62438;52.228;6.864;2022-12-29T07:28:41;9.13;;;1.15;;
74080;SDS011;62438;52.228;6.864;2022-12-29T07:30:42;7.22;;;0.95;;
74080;SDS011;62438;52.228;6.864;2022-12-29T07:32:42;9.45;;;1.30;;
74080;SDS011;62438;52.228;6.864;2022-12-29T07:34:43;9.88;;;1.52;;
74080;SDS011;62438;52.228;6.864;2022-12-29T07:36:47;9.45;;;1.25;;
74080;SDS011;62438;52.228;6.864;2022-12-29T07:38:47;9.27;;;0.93;;
74080;SDS011;62438;52.228;6.864;2022-12-29T07:40:48;9.40;;;1.30;;
74080;SDS011;62438;52.228;6.864;2022-12-29T07:42:48;5.65;;;0.73;;
74080;SDS011;62438;52.228;6.864;2022-12-29T07:44:48;5.32;;;0.73;;
74080;SDS011;62438;52.228;6.864;2022-12-29T07:46:49;5.00;;;0.93;;
74080;SDS011;62438;52.228;6.864;2022-12-29T07:48:49;7.00;;;1.17;;
74080;SDS011;62438;52.228;6.864;2022-12-29T07:50:49;5.28;;;0.80;;
74080;SDS011;62438;52.228;6.864;2022-12-29T07:52:51;5.88;;;0.95;;
74080;SDS011;62438;52.228;6.864;2022-12-29T07:54:52;5.07;;;0.63;;
74080;SDS011;62438;52.228;6.864;2022-12-29T07:56:52;4.25;;;0.57;;
74080;SDS011;62438;52.228;6.864;2022-12-29T07:58:52;5.53;;;0.63;;
74080;SDS011;62438;52.228;6.864;2022-12-29T08:00:56;6.22;;;0.93;;
74080;SDS011;62438;52.228;6.864;2022-12-29T08:02:57;6.55;;;0.85;;
74080;SDS011;62438;52.228;6.864;2022-12-29T08:04:57;10.13;;;0.73;;
74080;SDS011;62438;52.228;6.864;2022-12-29T08:06:58;4.78;;;0.80;;
74080;SDS011;62438;52.228;6.864;2022-12-29T08:08:59;4.45;;;0.90;;
74080;SDS011;62438;52.228;6.864;2022-12-29T08:11:01;6.57;;;0.90;;
74080;SDS011;62438;52.228;6.864;2022-12-29T08:13:02;6.43;;;0.98;;
74080;SDS011;62438;52.228;6.864;2022-12-29T08:15:02;4.03;;;1.52;;
74080;SDS011;62438;52.228;6.864;2022-12-29T08:17:03;6.75;;;0.80;;
74080;SDS011;62438;52.228;6.864;2022-12-29T08:19:04;6.53;;;0.77;;
74080;SDS011;62438;52.228;6.864;2022-12-29T08:21:05;4.80;;;0.82;;
74080;SDS011;62438;52.228;6.864;2022-12-29T08:23:06;4.13;;;0.75;;
74080;SDS011;62438;52.228;6.864;2022-12-29T08:25:06;8.43;;;1.10;;
74080;SDS011;62438;52.228;6.864;2022-12-29T08:27:07;5.95;;;1.30;;
74080;SDS011;62438;52.228;6.864;2022-12-29T08:29:07;6.60;;;0.70;;
74080;SDS011;62438;52.228;6.864;2022-12-29T08:31:08;7.20;;;0.80;;
74080;SDS011;62438;52.228;6.864;2022-12-29T08:33:08;6.57;;;0.70;;
74080;SDS011;62438;52.228;6.864;2022-12-29T08:35:09;7.45;;;1.00;;
74080;SDS011;62438;52.228;6.864;2022-12-29T08:37:09;8.38;;;0.90;;
74080;SDS011;62438;52.228;6.864;2022-12-29T08:39:10;6.47;;;1.10;;
74080;SDS011;62438;52.228;6.864;2022-12-29T08:41:10;6.75;;;0.90;;
74080;SDS011;62438;52.228;6.864;2022-12-29T08:45:50;4.57;;;0.60;;
74080;SDS011;62438;52.228;6.864;2022-12-29T08:47:51;5.45;;;0.82;;
74080;SDS011;62438;52.228;6.864;2022-12-29T08:49:51;5.60;;;0.80;;
74080;SDS011;62438;52.228;6.864;2022-12-29T08:51:51;5.15;;;0.52;;
74080;SDS011;62438;52.228;6.864;2022-12-29T08:53:52;6.85;;;0.82;;
74080;SDS011;62438;52.228;6.864;2022-12-29T08:55:56;8.43;;;1.30;;
74080;SDS011;62438;52.228;6.864;2022-12-29T08:57:58;7.75;;;0.60;;
74080;SDS011;62438;52.228;6.864;2022-12-29T08:59:59;6.20;;;0.95;;
74080;SDS011;62438;52.228;6.864;2022-12-29T09:01:59;6.18;;;0.75;;
74080;SDS011;62438;52.228;6.864;2022-12-29T09:04:01;9.80;;;1.20;;
74080;SDS011;62438;52.228;6.864;2022-12-29T09:06:02;7.30;;;1.08;;
74080;SDS011;62438;52.228;6.864;2022-12-29T09:08:03;9.32;;;0.90;;
74080;SDS011;62438;52.228;6.864;2022-12-29T09:10:04;8.13;;;1.27;;
74080;SDS011;62438;52.228;6.864;2022-12-29T09:12:05;7.18;;;1.00;;
74080;SDS011;62438;52.228;6.864;2022-12-29T09:14:05;8.10;;;1.27;;
74080;SDS011;62438;52.228;6.864;2022-12-29T09:16:06;8.57;;;1.38;;
74080;SDS011;62438;52.228;6.864;2022-12-29T09:18:07;8.43;;;1.00;;
74080;SDS011;62438;52.228;6.864;2022-12-29T09:20:10;7.75;;;0.70;;
74080;SDS011;62438;52.228;6.864;2022-12-29T09:22:13;5.25;;;0.82;;
74080;SDS011;62438;52.228;6.864;2022-12-29T09:24:14;7.43;;;1.13;;
74080;SDS011;62438;52.228;6.864;2022-12-29T09:26:15;12.85;;;1.20;;
74080;SDS011;62438;52.228;6.864;2022-12-29T09:28:15;8.25;;;1.38;;
74080;SDS011;62438;52.228;6.864;2022-12-29T09:30:16;7.20;;;0.80;;
74080;SDS011;62438;52.228;6.864;2022-12-29T09:32:16;4.70;;;1.00;;
74080;SDS011;62438;52.228;6.864;2022-12-29T09:34:17;7.97;;;1.30;;
74080;SDS011;62438;52.228;6.864;2022-12-29T09:36:17;11.57;;;1.40;;
74080;SDS011;62438;52.228;6.864;2022-12-29T09:38:18;7.22;;;1.40;;
74080;SDS011;62438;52.228;6.864;2022-12-29T09:40:22;10.50;;;1.02;;
74080;SDS011;62438;52.228;6.864;2022-12-29T09:46:49;10.07;;;1.52;;
74080;SDS011;62438;52.228;6.864;2022-12-29T09:51:13;8.45;;;1.10;;
74080;SDS011;62438;52.228;6.864;2022-12-29T09:53:35;8.32;;;0.88;;
74080;SDS011;62438;52.228;6.864;2022-12-29T09:55:45;6.93;;;1.13;;
74080;SDS011;62438;52.228;6.864;2022-12-29T09:57:53;6.38;;;0.77;;
74080;SDS011;62438;52.228;6.864;2022-12-29T09:59:59;8.82;;;1.35;;
74080;SDS011;62438;52.228;6.864;2022-12-29T10:02:06;8.63;;;0.90;;
74080;SDS011;62438;52.228;6.864;2022-12-29T10:04:33;4.75;;;0.90;;
74080;SDS011;62438;52.228;6.864;2022-12-29T10:18:50;7.28;;;0.80;;
74080;SDS011;62438;52.228;6.864;2022-12-29T10:21:02;14.48;;;1.30;;
74080;SDS011;62438;52.228;6.864;2022-12-29T10:25:44;7.00;;;0.93;;
74080;SDS011;62438;52.228;6.864;2022-12-29T10:27:49;7.75;;;0.98;;
74080;SDS011;62438;52.228;6.864;2022-12-29T10:29:55;7.90;;;1.15;;
74080;SDS011;62438;52.228;6.864;2022-12-29T10:32:22;9.73;;;0.90;;
74080;SDS011;62438;52.228;6.864;2022-12-29T10:34:29;7.93;;;0.80;;
74080;SDS011;62438;52.228;6.864;2022-12-29T10:36:34;7.35;;;1.13;;
74080;SDS011;62438;52.228;6.864;2022-12-29T10:38:40;8.18;;;1.27;;
74080;SDS011;62438;52.228;6.864;2022-12-29T10:40:58;4.90;;;0.75;;
74080;SDS011;62438;52.228;6.864;2022-12-29T10:43:00;9.65;;;1.58;;
74080;SDS011;62438;52.228;6.864;2022-12-29T10:45:06;6.47;;;0.95;;
74080;SDS011;62438;52.228;6.864;2022-12-29T10:47:14;7.88;;;1.45;;
74080;SDS011;62438;52.228;6.864;2022-12-29T10:49:18;11.15;;;1.15;;
74080;SDS011;62438;52.228;6.864;2022-12-29T10:51:21;7.90;;;0.93;;
74080;SDS011;62438;52.228;6.864;2022-12-29T10:53:26;8.68;;;1.30;;
74080;SDS011;62438;52.228;6.864;2022-12-29T10:55:35;8.63;;;0.80;;
74080;SDS011;62438;52.228;6.864;2022-12-29T10:57:37;6.68;;;0.70;;
74080;SDS011;62438;52.228;6.864;2022-12-29T10:59:41;7.43;;;1.38;;
74080;SDS011;62438;52.228;6.864;2022-12-29T11:01:46;5.90;;;0.88;;
74080;SDS011;62438;52.228;6.864;2022-12-29T11:03:53;4.72;;;0.70;;
74080;SDS011;62438;52.228;6.864;2022-12-29T11:06:03;4.45;;;0.73;;
74080;SDS011;62438;52.228;6.864;2022-12-29T11:08:17;6.50;;;0.68;;
74080;SDS011;62438;52.228;6.864;2022-12-29T11:10:29;9.25;;;1.13;;
74080;SDS011;62438;52.228;6.864;2022-12-29T11:12:30;6.93;;;0.80;;
74080;SDS011;62438;52.228;6.864;2022-12-29T11:14:31;7.35;;;0.90;;
74080;SDS011;62438;52.228;6.864;2022-12-29T11:16:32;5.78;;;0.68;;
74080;SDS011;62438;52.228;6.864;2022-12-29T11:18:36;8.43;;;1.00;;
74080;SDS011;62438;52.228;6.864;2022-12-29T11:20:38;5.80;;;1.08;;
74080;SDS011;62438;52.228;6.864;2022-12-29T11:22:38;5.30;;;1.27;;
74080;SDS011;62438;52.228;6.864;2022-12-29T11:24:44;6.63;;;0.77;;
74080;SDS011;62438;52.228;6.864;2022-12-29T11:26:46;4.97;;;0.70;;
74080;SDS011;62438;52.228;6.864;2022-12-29T11:31:08;6.68;;;0.88;;
74080;SDS011;62438;52.228;6.864;2022-12-29T11:33:09;7.93;;;0.75;;
74080;SDS011;62438;52.228;6.864;2022-12-29T11:35:17;7.00;;;0.82;;
74080;SDS011;62438;52.228;6.864;2022-12-29T11:37:38;7.13;;;0.80;;
74080;SDS011;62438;52.228;6.864;2022-12-29T11:40:15;5.80;;;0.98;;
74080;SDS011;62438;52.228;6.864;2022-12-29T11:42:20;5.25;;;1.27;;
74080;SDS011;62438;52.228;6.864;2022-12-29T11:44:29;6.88;;;1.05;;
74080;SDS011;62438;52.228;6.864;2022-12-29T11:46:38;5.65;;;0.70;;
74080;SDS011;62438;52.228;6.864;2022-12-29T11:48:39;7.35;;;0.82;;
74080;SDS011;62438;52.228;6.864;2022-12-29T11:50:48;9.43;;;1.00;;
74080;SDS011;62438;52.228;6.864;2022-12-29T11:52:57;7.13;;;1.10;;
74080;SDS011;62438;52.228;6.864;2022-12-29T11:55:01;4.85;;;0.80;;
74080;SDS011;62438;52.228;6.864;2022-12-29T11:57:15;7.13;;;1.67;;
74080;SDS011;62438;52.228;6.864;2022-12-29T12:01:34;7.07;;;1.20;;
74080;SDS011;62438;52.228;6.864;2022-12-29T12:03:38;8.55;;;2.25;;
74080;SDS011;62438;52.228;6.864;2022-12-29T12:10:32;7.75;;;1.25;;
74080;SDS011;62438;52.228;6.864;2022-12-29T12:15:34;9.55;;;2.55;;
74080;SDS011;62438;52.228;6.864;2022-12-29T12:20:16;6.90;;;1.80;;
74080;SDS011;62438;52.228;6.864;2022-12-29T12:24:41;10.88;;;1.25;;
74080;SDS011;62438;52.228;6.864;2022-12-29T12:29:14;13.07;;;1.77;;
74080;SDS011;62438;52.228;6.864;2022-12-29T12:31:33;8.88;;;1.40;;
74080;SDS011;62438;52.228;6.864;2022-12-29T12:34:01;5.47;;;1.30;;
74080;SDS011;62438;52.228;6.864;2022-12-29T12:41:05;10.18;;;1.92;;
74080;SDS011;62438;52.228;6.864;2022-12-29T12:57:52;12.63;;;1.83;;
74080;SDS011;62438;52.228;6.864;2022-12-29T13:00:17;14.73;;;2.20;;
74080;SDS011;62438;52.228;6.864;2022-12-29T13:02:34;12.68;;;2.47;;
74080;SDS011;62438;52.228;6.864;2022-12-29T13:11:54;12.85;;;4.65;;
74080;SDS011;62438;52.228;6.864;2022-12-29T13:28:01;10.98;;;2.42;;
74080;SDS011;62438;52.228;6.864;2022-12-29T13:36:45;12.52;;;2.85;;
74080;SDS011;62438;52.228;6.864;2022-12-29T13:43:33;9.15;;;1.85;;
74080;SDS011;62438;52.228;6.864;2022-12-29T13:45:40;11.43;;;2.28;;
74080;SDS011;62438;52.228;6.864;2022-12-29T13:47:52;10.48;;;2.20;;
74080;SDS011;62438;52.228;6.864;2022-12-29T13:50:03;11.25;;;2.25;;
74080;SDS011;62438;52.228;6.864;2022-12-29T13:52:15;11.20;;;2.00;;
74080;SDS011;62438;52.228;6.864;2022-12-29T13:56:39;9.40;;;2.08;;
74080;SDS011;62438;52.228;6.864;2022-12-29T14:01:10;9.98;;;2.05;;
74080;SDS011;62438;52.228;6.864;2022-12-29T14:03:26;9.77;;;1.75;;
74080;SDS011;62438;52.228;6.864;2022-12-29T14:05:40;10.00;;;1.55;;
74080;SDS011;62438;52.228;6.864;2022-12-29T14:07:45;12.95;;;2.33;;
74080;SDS011;62438;52.228;6.864;2022-12-29T14:09:47;7.47;;;1.80;;
74080;SDS011;62438;52.228;6.864;2022-12-29T14:11:51;10.70;;;2.10;;
74080;SDS011;62438;52.228;6.864;2022-12-29T14:13:52;9.80;;;1.80;;
74080;SDS011;62438;52.228;6.864;2022-12-29T14:15:59;10.95;;;2.10;;
74080;SDS011;62438;52.228;6.864;2022-12-29T14:18:04;9.25;;;1.50;;
74080;SDS011;62438;52.228;6.864;2022-12-29T14:20:29;13.73;;;2.20;;
74080;SDS011;62438;52.228;6.864;2022-12-29T14:22:30;13.35;;;2.35;;
74080;SDS011;62438;52.228;6.864;2022-12-29T14:30:46;9.48;;;2.50;;
74080;SDS011;62438;52.228;6.864;2022-12-29T14:33:02;15.60;;;3.45;;
74080;SDS011;62438;52.228;6.864;2022-12-29T14:37:44;10.32;;;1.90;;
74080;SDS011;62438;52.228;6.864;2022-12-29T14:39:44;14.13;;;2.90;;
74080;SDS011;62438;52.228;6.864;2022-12-29T14:41:46;13.45;;;2.50;;
74080;SDS011;62438;52.228;6.864;2022-12-29T14:43:53;15.90;;;1.83;;
74080;SDS011;62438;52.228;6.864;2022-12-29T14:46:00;12.20;;;2.47;;
74080;SDS011;62438;52.228;6.864;2022-12-29T14:48:02;9.88;;;1.73;;